Relfs Bluff, Arkansas
Current Conditions -  °F | °C
As of 9:53 AM on Wednesday 22 Oct 2014 (Local Time) from KPBF Reporting Station
Clear Clear  
Wind Chill: 59°   Ceiling: Unl
Heat Index: 59°   Visibility: 10mi
Dew Point: 49°   Wind: 9mph
Humidity: 69%   Direction: 70°ENE
Pressure: 30.23"   Gusts: NA
Location:  33.924°N, 91.8685°W
Report Text: KPBF 221453Z AUTO 07008KT 10SM CLR 15/09 A3023 RMK AO2 SLP236 T01500094 51019
Loading
Personal Weather Stations






























Interactive Weather Map
Tropical Storm Tracking
New forecast layout! Learn more

10-Day Weather Forecast

Advertisements
Track Severe Weather on mobile